Impacts TAF Board
For situational awareness. Not to be used for flight planning purposes.
IDs:

KDHN - Dothan Rgnl, AL, US

Issued at 0525 UTC 24 Jan 2019
Updated at 0613 UTC 24 Jan 2019
Potential Impact None Slight Moderate High
Time0553Z 24/07Z 24/08Z 24/09Z 24/10Z 24/11Z 24/12Z 24/13Z 24/14Z 24/15Z 24/16Z 24/17Z 24/18Z 24/19Z>>
Type OBS PRVL PRVL PRVL PRVL PRVL PRVL PRVL PRVL PRVL PRVL PRVL PRVL PRVL
VIS 10 4 4 >6 >6 >6 >6 >6 >6 >6 >6 >6 >6 >6
CIG 33 25 25 15 15 15 15 15 15 15 250 250 250 250
Cover OVC BKN BKN BKN BKN BKN BKN BKN BKN BKN BKN BKN BKN BKN
FltCat VFR MVFR MVFR MVFR MVFR MVFR MVFR MVFR MVFR MVFR VFR VFR VFR VFR
WX -RA -SHRA -SHRA -- -- -- -- -- -- -- -- -- -- --
WDir VRB 320 320 320 320 320 320 320 320 320 320 320 320 320
WSpd 0 11 11 11 11 11 11 11 11 11 12 12 12 12
WGst -- -- -- -- -- -- -- -- -- -- -- -- -- --
Raw TAF
KDHN 240525Z 2406/2506 32011KT 4SM -SHRA BKN025
  FM240900 32011KT P6SM BKN015
  FM241600 32012KT P6SM SCT030 BKN250


Raw METAR
KDHN 240553Z AUTO 00000KT 10SM -RA BKN033 BKN047 OVC060 13/12 A2981 RMK AO2 SLP091 P0005 60216 T01330122 10189 20133 58001
KDHN 240453Z AUTO 05009KT 5SM RA BR FEW045 BKN070 OVC095 13/12 A2980 RMK AO2 PRESFR SLP087 P0030 T01330122 402280133
KDHN 240440Z AUTO 36004KT 4SM RA BR SCT034 OVC060 14/12 A2984 RMK AO2 PRESFR P0026 T01390122
KDHN 240430Z AUTO 31009KT 2 1/2SM +RA BR FEW006 BKN030 OVC060 14/12 A2986 RMK AO2 P0021 T01390122
KDHN 240417Z AUTO 30013KT 3SM RA BR SCT006 SCT017 OVC024 14/13 A2987 RMK AO2 P0012 T01390128
KDHN 240413Z AUTO 30012KT 2 1/2SM +RA BR BKN005 OVC020 14/13 A2985 RMK AO2 P0011 T01390128
KDHN 240353Z AUTO 31009KT 5SM RA BR FEW005 BKN024 OVC095 14/13 A2984 RMK AO2 SLP103 P0020 T01440133
KDHN 240339Z AUTO 32008KT 5SM RA BR FEW009 BKN032 OVC095 14/13 A2983 RMK AO2 P0016 T01440128

METAR Board
Radar Display
Forecast Discussion
For situational awareness. Not to be used for flight planning purposes.